createdAt,value
2023-03-14T00:00:02.797Z,985.43
2023-03-14T00:01:03.857Z,985.43
2023-03-14T00:02:02.778Z,985.50
2023-03-14T00:03:02.756Z,985.54
2023-03-14T00:04:02.748Z,985.56
2023-03-14T00:05:03.689Z,985.55
2023-03-14T00:06:02.721Z,985.50
2023-03-14T00:07:02.751Z,985.56
2023-03-14T00:08:02.703Z,985.54
2023-03-14T00:09:03.632Z,985.59
2023-03-14T00:10:02.675Z,985.61
2023-03-14T00:11:02.653Z,985.57
2023-03-14T00:12:02.644Z,985.50
2023-03-14T00:13:02.696Z,985.48
2023-03-14T00:14:02.629Z,985.34
2023-03-14T00:15:02.602Z,985.34
2023-03-14T00:16:02.688Z,985.34
2023-03-14T00:17:02.584Z,985.26
2023-03-14T00:18:02.565Z,985.24
2023-03-14T00:19:02.566Z,985.20
2023-03-14T00:20:02.554Z,985.16
2023-03-14T00:21:02.536Z,985.15
2023-03-14T00:22:02.521Z,985.12
2023-03-14T00:23:02.501Z,985.08
2023-03-14T00:24:02.492Z,985.09
2023-03-14T00:25:02.508Z,985.08
2023-03-14T00:26:02.470Z,985.09
2023-03-14T00:27:02.450Z,985.14
2023-03-14T00:28:02.437Z,985.12
2023-03-14T00:29:02.420Z,985.21
2023-03-14T00:30:02.413Z,985.22
2023-03-14T00:31:02.520Z,985.23
2023-03-14T00:32:02.396Z,985.20
2023-03-14T00:33:02.359Z,985.17
2023-03-14T00:34:02.362Z,985.13
2023-03-14T00:35:02.399Z,985.06
2023-03-14T00:36:02.399Z,985.04
2023-03-14T00:37:03.301Z,985.06
2023-03-14T00:38:02.314Z,985.12
2023-03-14T00:39:02.295Z,985.15
2023-03-14T00:40:02.296Z,985.17
2023-03-14T00:41:02.262Z,985.13
2023-03-14T00:42:02.255Z,985.10
2023-03-14T00:43:02.315Z,985.03
2023-03-14T00:44:03.185Z,984.97
2023-03-14T00:45:02.219Z,984.85
2023-03-14T00:46:02.204Z,984.67
2023-03-14T00:47:02.249Z,984.62
2023-03-14T00:48:02.177Z,984.47
2023-03-14T00:49:02.283Z,984.38
2023-03-14T00:50:02.201Z,984.25
2023-03-14T00:51:02.134Z,984.27
2023-03-14T00:52:02.134Z,984.23
2023-03-14T00:53:02.101Z,984.12
2023-03-14T00:54:02.105Z,984.18
2023-03-14T00:55:02.177Z,984.23
2023-03-14T00:56:02.118Z,984.16
2023-03-14T00:57:02.061Z,984.13
2023-03-14T00:58:02.067Z,984.24
2023-03-14T00:59:02.032Z,984.32
2023-03-14T01:00:02.026Z,984.29
2023-03-14T01:01:02.058Z,984.33
2023-03-14T01:02:02.120Z,984.37
2023-03-14T01:03:01.992Z,984.45
2023-03-14T01:04:01.974Z,984.57
2023-03-14T01:05:01.962Z,984.50
2023-03-14T01:06:01.943Z,984.48
2023-03-14T01:07:01.960Z,984.48
2023-03-14T01:08:01.921Z,984.57
2023-03-14T01:09:01.910Z,984.57
2023-03-14T01:10:01.902Z,984.49
2023-03-14T01:11:01.880Z,984.62
2023-03-14T01:12:01.880Z,984.64
2023-03-14T01:13:01.961Z,984.60
2023-03-14T01:14:01.856Z,984.64
2023-03-14T01:15:01.831Z,984.65
2023-03-14T01:16:01.913Z,984.62
2023-03-14T01:17:01.879Z,984.69
2023-03-14T01:18:01.793Z,984.73
2023-03-14T01:19:01.811Z,984.72
2023-03-14T01:20:01.846Z,984.67
2023-03-14T01:21:01.750Z,984.64
2023-03-14T01:22:02.698Z,984.67
2023-03-14T01:23:01.737Z,984.60
2023-03-14T01:24:01.720Z,984.58
2023-03-14T01:25:01.739Z,984.57
2023-03-14T01:26:01.697Z,984.54
2023-03-14T01:27:01.686Z,984.46
2023-03-14T01:28:01.667Z,984.46
2023-03-14T01:29:01.651Z,984.47
2023-03-14T01:30:01.640Z,984.47
2023-03-14T01:31:01.758Z,984.53
2023-03-14T01:32:01.614Z,984.54
2023-03-14T01:33:01.611Z,984.58
2023-03-14T01:34:01.594Z,984.50
2023-03-14T01:35:01.580Z,984.59
2023-03-14T01:36:01.581Z,984.57
2023-03-14T01:37:01.655Z,984.58
2023-03-14T01:38:01.535Z,984.52
2023-03-14T01:39:01.549Z,984.62
2023-03-14T01:40:01.508Z,984.62
2023-03-14T01:41:01.489Z,984.60
2023-03-14T01:42:01.487Z,984.62
2023-03-14T01:43:01.492Z,984.63
2023-03-14T01:44:01.465Z,984.55
2023-03-14T01:45:01.439Z,984.58
2023-03-14T01:46:01.499Z,984.65
2023-03-14T01:47:01.449Z,984.68
2023-03-14T01:48:01.413Z,984.57
2023-03-14T01:49:01.413Z,984.62
2023-03-14T01:50:01.407Z,984.53
2023-03-14T01:51:01.389Z,984.60
2023-03-14T01:52:01.363Z,984.61
2023-03-14T01:53:01.337Z,984.59
2023-03-14T01:54:01.333Z,984.60
2023-03-14T01:55:01.426Z,984.61
2023-03-14T01:56:01.309Z,984.65
2023-03-14T01:57:01.285Z,984.63
2023-03-14T01:58:01.281Z,984.62
2023-03-14T01:59:01.257Z,984.58
2023-03-14T02:00:02.224Z,984.55
2023-03-14T02:01:01.299Z,984.63
2023-03-14T02:02:01.225Z,984.59
2023-03-14T02:03:01.216Z,984.51
2023-03-14T02:04:01.204Z,984.60
2023-03-14T02:05:01.218Z,984.58
2023-03-14T02:06:01.186Z,984.59
2023-03-14T02:07:01.270Z,984.57
2023-03-14T02:08:01.154Z,984.52
2023-03-14T02:09:01.133Z,984.49
2023-03-14T02:10:01.122Z,984.53
2023-03-14T02:11:01.120Z,984.42
2023-03-14T02:12:02.050Z,984.46
2023-03-14T02:13:01.109Z,984.49
2023-03-14T02:14:01.071Z,984.51
2023-03-14T02:15:01.059Z,984.48
2023-03-14T02:16:01.060Z,984.54
2023-03-14T02:17:01.018Z,984.59
2023-03-14T02:18:01.021Z,984.54
2023-03-14T02:19:01.028Z,984.51
2023-03-14T02:20:00.990Z,984.57
2023-03-14T02:21:00.988Z,984.53
2023-03-14T02:22:00.974Z,984.49
2023-03-14T02:23:00.941Z,984.52
2023-03-14T02:24:00.960Z,984.54
2023-03-14T02:25:00.950Z,984.54
2023-03-14T02:26:00.910Z,984.51
2023-03-14T02:27:00.892Z,984.54
2023-03-14T02:28:00.883Z,984.60
2023-03-14T02:29:00.861Z,984.55
2023-03-14T02:30:00.861Z,984.56
2023-03-14T02:31:00.966Z,984.68
2023-03-14T02:32:01.839Z,984.65
2023-03-14T02:33:01.849Z,984.64
2023-03-14T02:34:00.802Z,984.59
2023-03-14T02:35:00.784Z,984.56
2023-03-14T02:36:00.828Z,984.50
2023-03-14T02:37:00.800Z,984.55
2023-03-14T02:38:00.752Z,984.58
2023-03-14T02:39:00.733Z,984.52
2023-03-14T02:40:00.739Z,984.55
2023-03-14T02:41:00.710Z,984.37
2023-03-14T02:42:00.714Z,984.46
2023-03-14T02:43:00.707Z,984.47
2023-03-14T02:44:00.674Z,984.47
2023-03-14T02:45:00.658Z,984.45
2023-03-14T02:46:00.677Z,984.47
2023-03-14T02:47:00.626Z,984.48
2023-03-14T02:48:00.621Z,984.49
2023-03-14T02:49:00.627Z,984.47
2023-03-14T02:50:00.597Z,984.39
2023-03-14T02:51:00.578Z,984.46
2023-03-14T02:52:00.598Z,984.41
2023-03-14T02:53:00.557Z,984.50
2023-03-14T02:54:00.547Z,984.46
2023-03-14T02:55:00.542Z,984.49
2023-03-14T02:56:00.512Z,984.50
2023-03-14T02:57:00.501Z,984.48
2023-03-14T02:58:00.490Z,984.47
2023-03-14T02:59:00.476Z,984.48
2023-03-14T03:00:01.412Z,984.48
2023-03-14T03:01:00.593Z,984.49
2023-03-14T03:02:00.444Z,984.48
2023-03-14T03:03:00.481Z,984.44
2023-03-14T03:04:00.414Z,984.50
2023-03-14T03:05:00.396Z,984.43
2023-03-14T03:06:00.393Z,984.45
2023-03-14T03:07:00.404Z,984.44
2023-03-14T03:08:00.354Z,984.45
2023-03-14T03:09:00.344Z,984.38
2023-03-14T03:10:00.324Z,984.42
2023-03-14T03:11:00.317Z,984.40
2023-03-14T03:12:01.267Z,984.39
2023-03-14T03:13:01.276Z,984.42
2023-03-14T03:14:00.290Z,984.39
2023-03-14T03:15:00.272Z,984.48
2023-03-14T03:16:00.256Z,984.43
2023-03-14T03:17:00.349Z,984.45
2023-03-14T03:18:00.230Z,984.50
2023-03-14T03:19:00.339Z,984.47
2023-03-14T03:20:00.210Z,984.49
2023-03-14T03:21:00.192Z,984.49
2023-03-14T03:22:00.184Z,984.53
2023-03-14T03:23:00.179Z,984.48
2023-03-14T03:24:00.155Z,984.50
2023-03-14T03:25:00.177Z,984.52
2023-03-14T03:26:00.151Z,984.46
2023-03-14T03:27:00.112Z,984.49
2023-03-14T03:28:00.130Z,984.45
2023-03-14T03:29:00.108Z,984.44
2023-03-14T03:30:00.113Z,984.43
2023-03-14T03:31:00.216Z,984.46
2023-03-14T03:32:00.063Z,984.45
2023-03-14T03:33:00.140Z,984.41
2023-03-14T03:34:00.027Z,984.47
2023-03-14T03:35:00.014Z,984.44
2023-03-14T03:36:00.092Z,984.46
2023-03-14T03:37:00.028Z,984.41
2023-03-14T03:37:59.983Z,984.33
2023-03-14T03:38:59.980Z,984.33
2023-03-14T03:39:59.956Z,984.33
2023-03-14T03:40:59.943Z,984.40
2023-03-14T03:41:59.931Z,984.32
2023-03-14T03:42:59.949Z,984.35
2023-03-14T03:44:00.854Z,984.32
2023-03-14T03:44:59.889Z,984.35
2023-03-14T03:45:59.900Z,984.31
2023-03-14T03:46:59.862Z,984.38
2023-03-14T03:48:00.802Z,984.34
2023-03-14T03:49:00.839Z,984.34
2023-03-14T03:49:59.828Z,984.36
2023-03-14T03:50:59.817Z,984.40
2023-03-14T03:51:59.794Z,984.38
2023-03-14T03:52:59.786Z,984.38
2023-03-14T03:53:59.778Z,984.39
2023-03-14T03:54:59.793Z,984.35
2023-03-14T03:55:59.746Z,984.38
2023-03-14T03:56:59.736Z,984.34
2023-03-14T03:57:59.729Z,984.35
2023-03-14T03:58:59.709Z,984.40
2023-03-14T03:59:59.688Z,984.29
2023-03-14T04:00:59.785Z,984.29
2023-03-14T04:01:59.671Z,984.36
2023-03-14T04:02:59.656Z,984.34
2023-03-14T04:03:59.710Z,984.33
2023-03-14T04:04:59.637Z,984.35
2023-03-14T04:05:59.628Z,984.31
2023-03-14T04:06:59.721Z,984.32
2023-03-14T04:07:59.594Z,984.35
2023-03-14T04:08:59.578Z,984.31
2023-03-14T04:09:59.565Z,984.35
2023-03-14T04:10:59.568Z,984.37
2023-03-14T04:11:59.534Z,984.38
2023-03-14T04:12:59.644Z,984.37
2023-03-14T04:13:59.520Z,984.37
2023-03-14T04:14:59.504Z,984.36
2023-03-14T04:16:00.476Z,984.45
2023-03-14T04:16:59.475Z,984.46
2023-03-14T04:17:59.477Z,984.45
2023-03-14T04:18:59.497Z,984.47
2023-03-14T04:19:59.447Z,984.46
2023-03-14T04:20:59.427Z,984.42
2023-03-14T04:21:59.408Z,984.42
2023-03-14T04:22:59.398Z,984.47
2023-03-14T04:23:59.388Z,984.44
2023-03-14T04:24:59.407Z,984.40
2023-03-14T04:25:59.351Z,984.44
2023-03-14T04:26:59.344Z,984.43
2023-03-14T04:27:59.329Z,984.34
2023-03-14T04:28:59.328Z,984.34
2023-03-14T04:29:59.301Z,984.37
2023-03-14T04:30:59.372Z,984.37
2023-03-14T04:31:59.270Z,984.31
2023-03-14T04:32:59.396Z,984.38
2023-03-14T04:33:59.249Z,984.36
2023-03-14T04:34:59.250Z,984.34
2023-03-14T04:35:59.269Z,984.37
2023-03-14T04:36:59.250Z,984.37
2023-03-14T04:37:59.193Z,984.30
2023-03-14T04:38:59.191Z,984.34
2023-03-14T04:39:59.176Z,984.28
2023-03-14T04:40:59.163Z,984.36
2023-03-14T04:41:59.146Z,984.36
2023-03-14T04:42:59.257Z,984.33
2023-03-14T04:43:59.123Z,984.26
2023-03-14T04:45:00.086Z,984.29
2023-03-14T04:45:59.095Z,984.30
2023-03-14T04:46:59.107Z,984.28
2023-03-14T04:47:59.071Z,984.26
2023-03-14T04:48:59.106Z,984.26
2023-03-14T04:49:59.475Z,984.28
2023-03-14T04:50:59.039Z,984.15
2023-03-14T04:51:59.021Z,984.19
2023-03-14T04:52:58.999Z,984.21
2023-03-14T04:53:58.991Z,984.12
2023-03-14T04:54:59.016Z,984.14
2023-03-14T04:55:58.967Z,984.15
2023-03-14T04:56:58.974Z,983.98
2023-03-14T04:57:58.931Z,984.06
2023-03-14T04:58:58.928Z,984.06
2023-03-14T04:59:58.921Z,984.01
2023-03-14T05:00:58.932Z,984.03
2023-03-14T05:01:58.923Z,983.96
2023-03-14T05:02:58.893Z,984.01
2023-03-14T05:03:58.858Z,983.97
2023-03-14T05:04:58.849Z,983.99
2023-03-14T05:05:58.831Z,983.94
2023-03-14T05:06:58.893Z,984.00
2023-03-14T05:07:58.812Z,983.93
2023-03-14T05:08:58.791Z,983.98
2023-03-14T05:09:58.771Z,983.93
2023-03-14T05:10:58.761Z,983.94
2023-03-14T05:11:58.751Z,983.95
2023-03-14T05:12:58.791Z,983.98
2023-03-14T05:13:58.729Z,983.97
2023-03-14T05:14:58.714Z,983.94
2023-03-14T05:15:58.730Z,983.88
2023-03-14T05:16:58.694Z,983.85
2023-03-14T05:17:58.679Z,983.86
2023-03-14T05:18:58.700Z,983.84
2023-03-14T05:19:58.644Z,983.84
2023-03-14T05:20:58.634Z,983.87
2023-03-14T05:21:58.626Z,983.81
2023-03-14T05:22:58.616Z,983.84
2023-03-14T05:23:58.613Z,983.84
2023-03-14T05:24:58.616Z,983.89
2023-03-14T05:25:59.530Z,983.77
2023-03-14T05:26:58.557Z,983.81
2023-03-14T05:27:58.537Z,983.81
2023-03-14T05:28:58.539Z,983.85
2023-03-14T05:29:58.519Z,983.85
2023-03-14T05:30:58.617Z,983.74
2023-03-14T05:31:58.490Z,983.80
2023-03-14T05:32:58.605Z,983.80
2023-03-14T05:33:59.418Z,983.72
2023-03-14T05:34:58.456Z,983.77
2023-03-14T05:35:58.483Z,983.79
2023-03-14T05:36:58.466Z,983.61
2023-03-14T05:37:58.420Z,983.72
2023-03-14T05:38:58.407Z,983.64
2023-03-14T05:39:58.396Z,983.69
2023-03-14T05:40:58.377Z,983.73
2023-03-14T05:41:58.380Z,983.64
2023-03-14T05:42:58.386Z,983.72
2023-03-14T05:43:58.341Z,983.65
2023-03-14T05:44:58.338Z,983.65
2023-03-14T05:45:58.341Z,983.73
2023-03-14T05:46:58.308Z,983.75
2023-03-14T05:47:58.290Z,983.67
2023-03-14T05:48:58.318Z,983.64
2023-03-14T05:49:58.271Z,983.73
2023-03-14T05:50:58.252Z,983.70
2023-03-14T05:51:58.242Z,983.69
2023-03-14T05:52:58.222Z,983.71
2023-03-14T05:53:58.216Z,983.79
2023-03-14T05:54:58.301Z,983.78
2023-03-14T05:55:58.425Z,983.67
2023-03-14T05:56:58.173Z,983.76
2023-03-14T05:57:58.163Z,983.76
2023-03-14T05:58:58.300Z,983.78
2023-03-14T05:59:58.131Z,983.75
2023-03-14T06:00:59.152Z,983.73
2023-03-14T06:01:58.116Z,983.76
2023-03-14T06:02:58.146Z,983.74
2023-03-14T06:03:58.075Z,983.76
2023-03-14T06:04:58.067Z,983.78
2023-03-14T06:05:58.053Z,983.75
2023-03-14T06:06:58.081Z,983.79
2023-03-14T06:07:58.025Z,983.81
2023-03-14T06:08:58.027Z,983.74
2023-03-14T06:09:58.006Z,983.79
2023-03-14T06:10:57.989Z,983.75
2023-03-14T06:11:58.934Z,983.76
2023-03-14T06:12:57.998Z,983.76
2023-03-14T06:13:57.947Z,983.78
2023-03-14T06:14:57.936Z,983.72
2023-03-14T06:15:57.922Z,983.72
2023-03-14T06:16:58.697Z,983.71
2023-03-14T06:17:57.901Z,983.76
2023-03-14T06:18:57.917Z,983.75
2023-03-14T06:19:57.869Z,983.75
2023-03-14T06:20:57.869Z,983.73
2023-03-14T06:21:57.855Z,983.74
2023-03-14T06:22:57.838Z,983.70
2023-03-14T06:23:57.821Z,983.71
2023-03-14T06:24:57.920Z,983.76
2023-03-14T06:25:57.815Z,983.81
2023-03-14T06:26:57.794Z,983.72
2023-03-14T06:27:57.763Z,983.79
2023-03-14T06:28:57.759Z,983.77
2023-03-14T06:29:57.734Z,983.75
2023-03-14T06:30:57.856Z,983.75
2023-03-14T06:31:58.679Z,983.74
2023-03-14T06:32:57.850Z,983.79
2023-03-14T06:33:57.687Z,983.81
2023-03-14T06:34:57.690Z,983.79
2023-03-14T06:35:57.693Z,983.81
2023-03-14T06:36:57.777Z,983.74
2023-03-14T06:37:57.639Z,983.76
2023-03-14T06:38:57.635Z,983.76
2023-03-14T06:39:58.560Z,983.79
2023-03-14T06:40:57.667Z,983.81
2023-03-14T06:41:57.589Z,983.87
2023-03-14T06:42:57.612Z,983.81
2023-03-14T06:43:57.565Z,983.81
2023-03-14T06:44:57.555Z,983.78
2023-03-14T06:45:57.633Z,983.81
2023-03-14T06:46:57.528Z,983.77
2023-03-14T06:47:57.536Z,983.78
2023-03-14T06:48:57.629Z,983.71
2023-03-14T06:49:57.488Z,983.73
2023-03-14T06:50:57.475Z,983.74
2023-03-14T06:51:57.466Z,983.74
2023-03-14T06:52:57.463Z,983.73
2023-03-14T06:53:57.432Z,983.76
2023-03-14T06:54:57.456Z,983.78
2023-03-14T06:55:57.414Z,983.82
2023-03-14T06:56:57.410Z,983.79
2023-03-14T06:57:57.387Z,983.75
2023-03-14T06:58:57.371Z,983.80
2023-03-14T06:59:57.355Z,983.86
2023-03-14T07:00:57.458Z,983.68
2023-03-14T07:01:57.342Z,983.88
2023-03-14T07:02:57.342Z,983.85
2023-03-14T07:03:57.306Z,983.89
2023-03-14T07:04:57.300Z,983.81
2023-03-14T07:05:57.296Z,983.86
2023-03-14T07:06:57.311Z,983.83
2023-03-14T07:07:57.266Z,983.88
2023-03-14T07:08:57.527Z,983.88
2023-03-14T07:09:57.227Z,983.86
2023-03-14T07:10:57.217Z,983.95
2023-03-14T07:11:57.217Z,983.97
2023-03-14T07:12:57.237Z,983.94
2023-03-14T07:13:57.213Z,984.01
2023-03-14T07:14:59.107Z,983.87
2023-03-14T07:15:58.215Z,983.97
2023-03-14T07:16:57.249Z,983.91
2023-03-14T07:17:57.147Z,983.94
2023-03-14T07:18:57.147Z,983.95
2023-03-14T07:19:58.391Z,983.95
2023-03-14T07:20:57.090Z,983.89
2023-03-14T07:21:57.090Z,983.99
2023-03-14T07:23:00.879Z,984.04
2023-03-14T07:23:57.052Z,984.06
2023-03-14T07:24:58.053Z,984.02
2023-03-14T07:25:57.021Z,984.01
2023-03-14T07:26:57.054Z,984.06
2023-03-14T07:27:59.687Z,984.03
2023-03-14T07:28:57.003Z,984.01
2023-03-14T07:29:58.753Z,983.93
2023-03-14T07:30:57.057Z,984.02
2023-03-14T07:31:56.944Z,984.05
2023-03-14T07:32:56.991Z,984.01
2023-03-14T07:33:57.168Z,983.98
2023-03-14T07:34:57.204Z,983.92
2023-03-14T07:35:56.915Z,984.06
2023-03-14T07:36:56.933Z,983.99
2023-03-14T07:37:56.877Z,984.05
2023-03-14T07:38:56.864Z,984.09
2023-03-14T07:39:56.861Z,984.10
2023-03-14T07:40:56.832Z,984.09
2023-03-14T07:41:57.973Z,984.15
2023-03-14T07:42:56.847Z,984.09
2023-03-14T07:43:57.740Z,984.20
2023-03-14T07:44:57.734Z,984.15
2023-03-14T07:45:59.735Z,984.10
2023-03-14T07:46:56.955Z,984.08
2023-03-14T07:47:56.735Z,984.18
2023-03-14T07:48:57.790Z,984.16
2023-03-14T07:49:56.719Z,984.16
2023-03-14T07:50:56.706Z,984.17
2023-03-14T07:51:56.966Z,984.21
2023-03-14T07:52:56.677Z,984.19
2023-03-14T07:53:57.618Z,984.15
2023-03-14T07:55:00.630Z,984.13
2023-03-14T07:55:56.648Z,984.08
2023-03-14T07:56:56.628Z,984.17
2023-03-14T07:57:58.282Z,984.12
2023-03-14T07:58:56.592Z,984.16
2023-03-14T07:59:56.592Z,984.09
2023-03-14T08:00:56.690Z,984.17
2023-03-14T08:01:56.582Z,984.04
2023-03-14T08:02:56.620Z,984.15
2023-03-14T08:03:56.609Z,984.13
2023-03-14T08:04:56.530Z,984.10
2023-03-14T08:05:56.556Z,984.12
2023-03-14T08:06:56.545Z,984.10
2023-03-14T08:07:56.504Z,984.16
2023-03-14T08:08:56.470Z,984.14
2023-03-14T08:09:56.465Z,984.12
2023-03-14T08:10:56.440Z,984.16
2023-03-14T08:11:58.664Z,984.19
2023-03-14T08:12:56.456Z,984.10
2023-03-14T08:13:56.421Z,984.16
2023-03-14T08:14:56.419Z,984.18
2023-03-14T08:15:56.425Z,984.22
2023-03-14T08:16:56.372Z,984.17
2023-03-14T08:17:56.358Z,984.23
2023-03-14T08:18:56.750Z,984.23
2023-03-14T08:19:56.333Z,984.17
2023-03-14T08:20:56.307Z,984.32
2023-03-14T08:21:56.318Z,984.19
2023-03-14T08:22:56.293Z,984.27
2023-03-14T08:23:56.286Z,984.22
2023-03-14T08:24:57.334Z,984.19
2023-03-14T08:25:56.256Z,984.22
2023-03-14T08:26:56.234Z,984.26
2023-03-14T08:27:56.228Z,984.25
2023-03-14T08:28:56.214Z,984.20
2023-03-14T08:29:56.218Z,984.25
2023-03-14T08:30:56.357Z,984.31
2023-03-14T08:31:59.899Z,984.36
2023-03-14T08:32:56.225Z,984.36
2023-03-14T08:33:56.150Z,984.27
2023-03-14T08:34:56.137Z,984.34
2023-03-14T08:35:56.162Z,984.29
2023-03-14T08:36:56.178Z,984.37
2023-03-14T08:37:57.075Z,984.38
2023-03-14T08:38:56.245Z,984.36
2023-03-14T08:39:56.295Z,984.42
2023-03-14T08:40:56.361Z,984.33
2023-03-14T08:41:56.120Z,984.38
2023-03-14T08:42:56.162Z,984.33
2023-03-14T08:43:56.390Z,984.34
2023-03-14T08:44:56.345Z,984.44
2023-03-14T08:45:55.993Z,984.39
2023-03-14T08:46:56.131Z,984.44
2023-03-14T08:47:56.001Z,984.37
2023-03-14T08:48:55.993Z,984.44
2023-03-14T08:49:56.119Z,984.45
2023-03-14T08:50:56.180Z,984.46
2023-03-14T08:51:55.923Z,984.44
2023-03-14T08:52:55.944Z,984.34
2023-03-14T08:53:56.855Z,984.50
2023-03-14T08:54:56.403Z,984.45
2023-03-14T08:55:56.426Z,984.50
2023-03-14T08:56:56.009Z,984.43
2023-03-14T08:57:56.119Z,984.49
2023-03-14T08:58:55.920Z,984.40
2023-03-14T08:59:55.896Z,984.50
2023-03-14T09:00:56.101Z,984.54
2023-03-14T09:01:57.084Z,984.59
2023-03-14T09:02:56.124Z,984.58
2023-03-14T09:03:56.240Z,984.64
2023-03-14T09:04:56.398Z,984.64
2023-03-14T09:05:55.761Z,984.73
2023-03-14T09:06:56.180Z,984.68
2023-03-14T09:07:56.322Z,984.74
2023-03-14T09:08:55.756Z,984.75
2023-03-14T09:09:55.882Z,984.81
2023-03-14T09:10:56.641Z,985.02
2023-03-14T09:11:56.114Z,985.44
2023-03-14T09:12:55.953Z,985.41
2023-03-14T09:13:56.031Z,985.49
2023-03-14T09:14:56.079Z,985.53
2023-03-14T09:15:55.718Z,985.53
2023-03-14T09:16:56.574Z,985.55
2023-03-14T09:17:55.999Z,985.60
2023-03-14T09:18:55.886Z,985.60
2023-03-14T09:19:55.699Z,985.66
2023-03-14T09:20:55.570Z,985.74
2023-03-14T09:21:55.538Z,985.68
2023-03-14T09:22:56.322Z,985.69
2023-03-14T09:23:55.550Z,985.71
2023-03-14T09:24:55.509Z,985.73
2023-03-14T09:25:55.496Z,985.75
2023-03-14T09:26:55.472Z,985.79
2023-03-14T09:27:55.497Z,985.80
2023-03-14T09:28:58.552Z,985.88
2023-03-14T09:29:56.270Z,985.86
2023-03-14T09:30:55.465Z,985.92
2023-03-14T09:31:55.947Z,985.96
2023-03-14T09:32:55.571Z,985.93
2023-03-14T09:33:55.381Z,985.92
2023-03-14T09:34:55.494Z,985.88
2023-03-14T09:35:55.395Z,985.87
2023-03-14T09:36:55.505Z,985.92
2023-03-14T09:37:55.332Z,985.95
2023-03-14T09:38:55.319Z,986.06
2023-03-14T09:39:55.307Z,986.14
2023-03-14T09:40:55.317Z,986.14
2023-03-14T09:41:55.394Z,986.34
2023-03-14T09:42:55.328Z,986.48
2023-03-14T09:43:55.272Z,986.60
2023-03-14T09:44:59.020Z,986.64
2023-03-14T09:45:55.417Z,986.79
2023-03-14T09:46:55.226Z,986.80
2023-03-14T09:47:59.455Z,986.89
2023-03-14T09:48:55.328Z,986.90
2023-03-14T09:49:55.362Z,986.99
2023-03-14T09:50:55.209Z,987.07
2023-03-14T09:51:55.195Z,987.05
2023-03-14T09:52:55.350Z,987.09
2023-03-14T09:53:55.190Z,987.10
2023-03-14T09:54:55.226Z,987.12
2023-03-14T09:55:55.084Z,987.18
2023-03-14T09:56:55.094Z,987.16
2023-03-14T09:57:55.074Z,987.29
2023-03-14T09:58:55.190Z,987.38
2023-03-14T09:59:55.036Z,987.48
2023-03-14T10:00:55.220Z,987.50
2023-03-14T10:01:55.356Z,987.59
2023-03-14T10:02:55.015Z,987.66
2023-03-14T10:03:55.013Z,987.69
2023-03-14T10:04:55.150Z,987.79
2023-03-14T10:05:55.068Z,987.93
2023-03-14T10:06:55.120Z,987.92
2023-03-14T10:07:55.308Z,988.03
2023-03-14T10:08:55.009Z,988.09
2023-03-14T10:09:55.016Z,988.08
2023-03-14T10:10:55.012Z,988.19
2023-03-14T10:11:55.100Z,988.14
2023-03-14T10:12:55.174Z,988.20
2023-03-14T10:13:54.959Z,988.22
2023-03-14T10:14:54.852Z,988.31
2023-03-14T10:15:55.130Z,988.36
2023-03-14T10:16:54.871Z,988.45
2023-03-14T10:17:54.829Z,988.52
2023-03-14T10:18:54.882Z,988.57
2023-03-14T10:19:54.789Z,988.60
2023-03-14T10:20:54.762Z,988.69
2023-03-14T10:21:54.766Z,988.72
2023-03-14T10:22:54.727Z,988.86
2023-03-14T10:23:54.716Z,988.79
2023-03-14T10:24:54.748Z,988.89
2023-03-14T10:25:54.948Z,988.87
2023-03-14T10:26:55.129Z,988.85
2023-03-14T10:27:54.970Z,988.97
2023-03-14T10:28:54.660Z,989.05
2023-03-14T10:29:54.660Z,989.13
2023-03-14T10:30:55.189Z,989.17
2023-03-14T10:31:55.425Z,989.23
2023-03-14T10:32:54.704Z,989.29
2023-03-14T10:33:54.651Z,989.30
2023-03-14T10:34:54.983Z,989.34
2023-03-14T10:35:54.628Z,989.40
2023-03-14T10:36:54.605Z,989.43
2023-03-14T10:37:54.548Z,989.57
2023-03-14T10:38:54.906Z,989.54
2023-03-14T10:39:54.603Z,989.57
2023-03-14T10:40:54.571Z,989.73
2023-03-14T10:41:54.590Z,989.76
2023-03-14T10:42:55.903Z,989.81
2023-03-14T10:43:54.488Z,989.89
2023-03-14T10:44:54.989Z,989.97
2023-03-14T10:45:54.784Z,990.04
2023-03-14T10:46:54.448Z,990.09
2023-03-14T10:47:54.632Z,990.04
2023-03-14T10:48:54.523Z,990.11
2023-03-14T10:49:54.397Z,990.19
2023-03-14T10:50:54.401Z,990.34
2023-03-14T10:51:54.377Z,990.36
2023-03-14T10:53:03.064Z,990.35
2023-03-14T10:53:55.646Z,990.33
2023-03-14T10:54:54.339Z,990.42
2023-03-14T10:55:54.325Z,990.42
2023-03-14T10:56:54.331Z,990.49
2023-03-14T10:57:54.327Z,990.55
2023-03-14T10:58:55.233Z,990.52
2023-03-14T10:59:54.596Z,990.64
2023-03-14T11:00:54.249Z,990.68
2023-03-14T11:01:54.261Z,990.71
2023-03-14T11:02:54.231Z,990.76
2023-03-14T11:03:54.236Z,990.71
2023-03-14T11:04:54.289Z,990.82
2023-03-14T11:05:54.353Z,990.83
2023-03-14T11:06:54.169Z,990.90
2023-03-14T11:07:54.573Z,990.91
2023-03-14T11:08:54.148Z,990.89
2023-03-14T11:09:54.138Z,990.93
2023-03-14T11:10:54.164Z,990.94
2023-03-14T11:11:54.233Z,990.96
2023-03-14T11:12:54.098Z,990.91
2023-03-14T11:13:54.242Z,991.00
2023-03-14T11:14:54.077Z,991.02
2023-03-14T11:15:54.185Z,991.07
2023-03-14T11:16:54.050Z,991.10
2023-03-14T11:17:54.151Z,991.11
2023-03-14T11:18:54.237Z,991.22
2023-03-14T11:19:54.084Z,991.22
2023-03-14T11:20:54.115Z,991.28
2023-03-14T11:21:54.037Z,991.29
2023-03-14T11:22:53.969Z,991.35
2023-03-14T11:23:54.040Z,991.37
2023-03-14T11:24:53.930Z,991.40
2023-03-14T11:25:54.219Z,991.42
2023-03-14T11:26:54.041Z,991.51
2023-03-14T11:27:53.908Z,991.53
2023-03-14T11:28:54.212Z,991.53
2023-03-14T11:29:54.222Z,991.58
2023-03-14T11:30:54.001Z,991.58
2023-03-14T11:31:54.213Z,991.66
2023-03-14T11:32:53.942Z,991.66
2023-03-14T11:33:53.839Z,991.67
2023-03-14T11:34:53.943Z,991.64
2023-03-14T11:35:53.877Z,991.71
2023-03-14T11:36:53.786Z,991.70
2023-03-14T11:37:54.053Z,991.77
2023-03-14T11:38:54.207Z,991.74
2023-03-14T11:39:53.753Z,991.82
2023-03-14T11:40:53.772Z,991.77
2023-03-14T11:41:53.972Z,991.82
2023-03-14T11:42:53.720Z,991.84
2023-03-14T11:43:53.827Z,991.86
2023-03-14T11:44:53.689Z,991.87
2023-03-14T11:45:54.622Z,991.85
2023-03-14T11:46:53.717Z,991.90
2023-03-14T11:47:53.824Z,991.89
2023-03-14T11:48:54.052Z,991.99
2023-03-14T11:49:53.663Z,991.94
2023-03-14T11:50:53.605Z,992.01
2023-03-14T11:51:53.833Z,992.06
2023-03-14T11:52:53.576Z,992.05
2023-03-14T11:53:53.597Z,992.15
2023-03-14T11:54:53.566Z,992.19
2023-03-14T11:55:53.857Z,992.22
2023-03-14T11:56:53.532Z,992.22
2023-03-14T11:57:53.873Z,992.18
2023-03-14T11:58:53.547Z,992.28
2023-03-14T11:59:53.869Z,992.26
2023-03-14T12:00:53.478Z,992.25
2023-03-14T12:01:53.502Z,992.33
2023-03-14T12:02:53.478Z,992.39
2023-03-14T12:03:53.495Z,992.34
2023-03-14T12:04:53.537Z,992.40
2023-03-14T12:05:53.446Z,992.43
2023-03-14T12:06:53.406Z,992.52
2023-03-14T12:07:53.401Z,992.47
2023-03-14T12:08:53.393Z,992.53
2023-03-14T12:09:53.364Z,992.57
2023-03-14T12:10:53.359Z,992.61
2023-03-14T12:11:53.457Z,992.63
2023-03-14T12:12:53.332Z,992.70
2023-03-14T12:13:53.310Z,992.73
2023-03-14T12:14:53.314Z,992.75
2023-03-14T12:15:53.316Z,992.94
2023-03-14T12:16:55.006Z,992.99
2023-03-14T12:17:53.360Z,993.02
2023-03-14T12:18:53.259Z,993.07
2023-03-14T12:19:53.309Z,993.00
2023-03-14T12:20:53.312Z,993.12
2023-03-14T12:21:53.273Z,993.08
2023-03-14T12:22:53.198Z,993.19
2023-03-14T12:23:53.205Z,993.19
2023-03-14T12:24:53.173Z,993.21
2023-03-14T12:25:53.197Z,993.31
2023-03-14T12:26:53.320Z,993.37
2023-03-14T12:27:53.349Z,993.35